sensor_id;sensor_type;location;lat;lon;timestamp;P1;durP1;ratioP1;P2;durP2;ratioP2
20294;SDS011;10306;52.128;5.208;2022-09-09T00:02:18;1.73;;;1.60;;
20294;SDS011;10306;52.128;5.208;2022-09-09T00:04:46;2.00;;;1.60;;
20294;SDS011;10306;52.128;5.208;2022-09-09T00:07:19;1.60;;;1.60;;
20294;SDS011;10306;52.128;5.208;2022-09-09T00:12:23;1.77;;;1.67;;
20294;SDS011;10306;52.128;5.208;2022-09-09T00:14:51;2.63;;;1.80;;
20294;SDS011;10306;52.128;5.208;2022-09-09T00:20:03;2.50;;;2.00;;
20294;SDS011;10306;52.128;5.208;2022-09-09T00:22:31;1.70;;;1.60;;
20294;SDS011;10306;52.128;5.208;2022-09-09T00:27:47;1.90;;;1.80;;
20294;SDS011;10306;52.128;5.208;2022-09-09T00:32:41;2.13;;;1.90;;
20294;SDS011;10306;52.128;5.208;2022-09-09T00:35:15;1.97;;;1.87;;
20294;SDS011;10306;52.128;5.208;2022-09-09T00:37:43;2.13;;;2.03;;
20294;SDS011;10306;52.128;5.208;2022-09-09T00:40:45;2.17;;;2.07;;
20294;SDS011;10306;52.128;5.208;2022-09-09T00:48:22;2.07;;;1.97;;
20294;SDS011;10306;52.128;5.208;2022-09-09T00:50:55;1.90;;;1.80;;
20294;SDS011;10306;52.128;5.208;2022-09-09T00:58:33;2.37;;;2.27;;
20294;SDS011;10306;52.128;5.208;2022-09-09T01:01:09;2.70;;;2.50;;
20294;SDS011;10306;52.128;5.208;2022-09-09T01:06:29;2.47;;;2.27;;
20294;SDS011;10306;52.128;5.208;2022-09-09T01:09:07;2.60;;;2.40;;
20294;SDS011;10306;52.128;5.208;2022-09-09T01:11:43;2.63;;;2.43;;
20294;SDS011;10306;52.128;5.208;2022-09-09T01:14:20;3.93;;;2.43;;
20294;SDS011;10306;52.128;5.208;2022-09-09T01:16:50;2.63;;;2.43;;
20294;SDS011;10306;52.128;5.208;2022-09-09T01:19:20;3.33;;;2.97;;
20294;SDS011;10306;52.128;5.208;2022-09-09T01:21:54;2.93;;;2.73;;
20294;SDS011;10306;52.128;5.208;2022-09-09T01:24:38;2.63;;;2.43;;
20294;SDS011;10306;52.128;5.208;2022-09-09T01:27:06;3.00;;;2.70;;
20294;SDS011;10306;52.128;5.208;2022-09-09T01:29:33;2.97;;;2.70;;
20294;SDS011;10306;52.128;5.208;2022-09-09T01:32:00;2.73;;;2.53;;
20294;SDS011;10306;52.128;5.208;2022-09-09T01:34:36;2.67;;;2.57;;
20294;SDS011;10306;52.128;5.208;2022-09-09T01:37:05;2.70;;;2.57;;
20294;SDS011;10306;52.128;5.208;2022-09-09T01:39:32;2.50;;;2.40;;
20294;SDS011;10306;52.128;5.208;2022-09-09T01:41:58;2.90;;;2.80;;
20294;SDS011;10306;52.128;5.208;2022-09-09T01:44:24;2.57;;;2.37;;
20294;SDS011;10306;52.128;5.208;2022-09-09T01:46:51;2.97;;;2.70;;
20294;SDS011;10306;52.128;5.208;2022-09-09T01:49:17;3.63;;;3.00;;
20294;SDS011;10306;52.128;5.208;2022-09-09T01:51:43;2.40;;;2.27;;
20294;SDS011;10306;52.128;5.208;2022-09-09T01:54:10;2.67;;;2.47;;
20294;SDS011;10306;52.128;5.208;2022-09-09T01:56:56;3.87;;;2.63;;
20294;SDS011;10306;52.128;5.208;2022-09-09T01:59:41;2.60;;;2.50;;
20294;SDS011;10306;52.128;5.208;2022-09-09T02:02:11;2.77;;;2.57;;
20294;SDS011;10306;52.128;5.208;2022-09-09T02:04:40;2.80;;;2.60;;
20294;SDS011;10306;52.128;5.208;2022-09-09T02:07:10;3.30;;;3.10;;
20294;SDS011;10306;52.128;5.208;2022-09-09T02:09:39;5.93;;;2.80;;
20294;SDS011;10306;52.128;5.208;2022-09-09T02:12:16;3.50;;;3.07;;
20294;SDS011;10306;52.128;5.208;2022-09-09T02:14:47;4.07;;;3.00;;
20294;SDS011;10306;52.128;5.208;2022-09-09T02:17:15;3.37;;;3.17;;
20294;SDS011;10306;52.128;5.208;2022-09-09T02:19:47;3.30;;;3.10;;
20294;SDS011;10306;52.128;5.208;2022-09-09T02:22:16;4.30;;;3.93;;
20294;SDS011;10306;52.128;5.208;2022-09-09T02:24:43;3.70;;;3.47;;
20294;SDS011;10306;52.128;5.208;2022-09-09T02:27:11;4.07;;;3.17;;
20294;SDS011;10306;52.128;5.208;2022-09-09T02:29:38;3.60;;;3.40;;
20294;SDS011;10306;52.128;5.208;2022-09-09T02:32:06;2.77;;;2.67;;
20294;SDS011;10306;52.128;5.208;2022-09-09T02:34:35;3.43;;;3.23;;
20294;SDS011;10306;52.128;5.208;2022-09-09T02:37:02;5.20;;;3.53;;
20294;SDS011;10306;52.128;5.208;2022-09-09T02:39:29;3.77;;;3.57;;
20294;SDS011;10306;52.128;5.208;2022-09-09T02:41:55;3.37;;;3.17;;
20294;SDS011;10306;52.128;5.208;2022-09-09T02:44:21;4.10;;;3.77;;
20294;SDS011;10306;52.128;5.208;2022-09-09T02:49:47;4.27;;;3.27;;
20294;SDS011;10306;52.128;5.208;2022-09-09T02:52:15;3.70;;;3.47;;
20294;SDS011;10306;52.128;5.208;2022-09-09T02:54:42;3.20;;;3.00;;
20294;SDS011;10306;52.128;5.208;2022-09-09T02:59:35;4.10;;;3.40;;
20294;SDS011;10306;52.128;5.208;2022-09-09T03:02:01;4.07;;;3.63;;
20294;SDS011;10306;52.128;5.208;2022-09-09T03:04:28;3.53;;;3.33;;
20294;SDS011;10306;52.128;5.208;2022-09-09T03:06:54;3.40;;;3.20;;
20294;SDS011;10306;52.128;5.208;2022-09-09T03:09:20;3.43;;;3.17;;
20294;SDS011;10306;52.128;5.208;2022-09-09T03:11:46;3.43;;;3.13;;
20294;SDS011;10306;52.128;5.208;2022-09-09T03:14:14;4.47;;;2.80;;
20294;SDS011;10306;52.128;5.208;2022-09-09T03:16:40;3.67;;;3.43;;
20294;SDS011;10306;52.128;5.208;2022-09-09T03:19:07;3.60;;;3.40;;
20294;SDS011;10306;52.128;5.208;2022-09-09T03:21:34;3.70;;;3.40;;
20294;SDS011;10306;52.128;5.208;2022-09-09T03:24:00;3.50;;;3.30;;
20294;SDS011;10306;52.128;5.208;2022-09-09T03:26:28;3.70;;;3.50;;
20294;SDS011;10306;52.128;5.208;2022-09-09T03:28:54;3.63;;;3.33;;
20294;SDS011;10306;52.128;5.208;2022-09-09T03:31:20;3.77;;;3.57;;
20294;SDS011;10306;52.128;5.208;2022-09-09T03:33:46;4.20;;;3.90;;
20294;SDS011;10306;52.128;5.208;2022-09-09T03:36:12;4.07;;;3.77;;
20294;SDS011;10306;52.128;5.208;2022-09-09T03:38:39;4.77;;;4.37;;
20294;SDS011;10306;52.128;5.208;2022-09-09T03:41:04;4.23;;;3.83;;
20294;SDS011;10306;52.128;5.208;2022-09-09T03:43:30;3.73;;;3.53;;
20294;SDS011;10306;52.128;5.208;2022-09-09T03:45:57;4.40;;;4.10;;
20294;SDS011;10306;52.128;5.208;2022-09-09T03:48:23;4.47;;;4.17;;
20294;SDS011;10306;52.128;5.208;2022-09-09T03:50:51;4.43;;;3.97;;
20294;SDS011;10306;52.128;5.208;2022-09-09T03:53:18;4.03;;;3.83;;
20294;SDS011;10306;52.128;5.208;2022-09-09T03:55:45;4.43;;;4.23;;
20294;SDS011;10306;52.128;5.208;2022-09-09T03:58:11;4.13;;;3.43;;
20294;SDS011;10306;52.128;5.208;2022-09-09T04:00:37;4.77;;;4.13;;
20294;SDS011;10306;52.128;5.208;2022-09-09T04:03:05;4.50;;;4.17;;
20294;SDS011;10306;52.128;5.208;2022-09-09T04:05:31;4.27;;;4.00;;
20294;SDS011;10306;52.128;5.208;2022-09-09T04:07:58;3.93;;;3.73;;
20294;SDS011;10306;52.128;5.208;2022-09-09T04:10:24;7.07;;;4.00;;
20294;SDS011;10306;52.128;5.208;2022-09-09T04:12:51;4.30;;;3.83;;
20294;SDS011;10306;52.128;5.208;2022-09-09T04:15:17;6.27;;;4.70;;
20294;SDS011;10306;52.128;5.208;2022-09-09T04:17:44;4.20;;;4.00;;
20294;SDS011;10306;52.128;5.208;2022-09-09T04:20:10;4.43;;;3.77;;
20294;SDS011;10306;52.128;5.208;2022-09-09T04:22:37;3.83;;;3.60;;
20294;SDS011;10306;52.128;5.208;2022-09-09T04:25:04;4.73;;;3.80;;
20294;SDS011;10306;52.128;5.208;2022-09-09T04:27:30;4.20;;;3.80;;
20294;SDS011;10306;52.128;5.208;2022-09-09T04:29:56;7.17;;;3.50;;
20294;SDS011;10306;52.128;5.208;2022-09-09T04:32:22;4.07;;;3.77;;
20294;SDS011;10306;52.128;5.208;2022-09-09T04:34:51;4.53;;;3.97;;
20294;SDS011;10306;52.128;5.208;2022-09-09T04:37:17;5.67;;;3.50;;
20294;SDS011;10306;52.128;5.208;2022-09-09T04:39:43;5.40;;;3.60;;
20294;SDS011;10306;52.128;5.208;2022-09-09T04:42:10;4.23;;;3.80;;
20294;SDS011;10306;52.128;5.208;2022-09-09T04:44:37;3.53;;;3.03;;
20294;SDS011;10306;52.128;5.208;2022-09-09T04:47:04;3.70;;;3.40;;
20294;SDS011;10306;52.128;5.208;2022-09-09T04:49:30;4.33;;;3.70;;
20294;SDS011;10306;52.128;5.208;2022-09-09T04:51:56;4.17;;;3.43;;
20294;SDS011;10306;52.128;5.208;2022-09-09T04:54:22;5.10;;;3.50;;
20294;SDS011;10306;52.128;5.208;2022-09-09T04:56:50;5.93;;;3.43;;
20294;SDS011;10306;52.128;5.208;2022-09-09T04:59:16;3.77;;;3.50;;
20294;SDS011;10306;52.128;5.208;2022-09-09T05:01:42;4.13;;;3.83;;
20294;SDS011;10306;52.128;5.208;2022-09-09T05:04:08;3.77;;;3.57;;
20294;SDS011;10306;52.128;5.208;2022-09-09T05:06:33;4.57;;;3.80;;
20294;SDS011;10306;52.128;5.208;2022-09-09T05:09:01;7.17;;;3.17;;
20294;SDS011;10306;52.128;5.208;2022-09-09T05:11:30;3.53;;;3.33;;
20294;SDS011;10306;52.128;5.208;2022-09-09T05:13:57;3.67;;;3.20;;
20294;SDS011;10306;52.128;5.208;2022-09-09T05:16:23;3.80;;;3.50;;
20294;SDS011;10306;52.128;5.208;2022-09-09T05:18:49;6.50;;;3.23;;
20294;SDS011;10306;52.128;5.208;2022-09-09T05:21:16;5.83;;;3.07;;
20294;SDS011;10306;52.128;5.208;2022-09-09T05:23:42;4.43;;;3.57;;
20294;SDS011;10306;52.128;5.208;2022-09-09T05:26:11;3.13;;;3.00;;
20294;SDS011;10306;52.128;5.208;2022-09-09T05:28:38;3.33;;;3.03;;
20294;SDS011;10306;52.128;5.208;2022-09-09T05:31:04;3.70;;;3.20;;
20294;SDS011;10306;52.128;5.208;2022-09-09T05:33:33;3.40;;;3.20;;
20294;SDS011;10306;52.128;5.208;2022-09-09T05:36:00;3.10;;;2.80;;
20294;SDS011;10306;52.128;5.208;2022-09-09T05:38:27;4.83;;;3.17;;
20294;SDS011;10306;52.128;5.208;2022-09-09T05:40:53;4.07;;;3.37;;
20294;SDS011;10306;52.128;5.208;2022-09-09T05:43:20;3.03;;;2.83;;
20294;SDS011;10306;52.128;5.208;2022-09-09T05:45:47;5.50;;;2.77;;
20294;SDS011;10306;52.128;5.208;2022-09-09T05:48:16;3.10;;;2.90;;
20294;SDS011;10306;52.128;5.208;2022-09-09T05:50:42;3.03;;;2.57;;
20294;SDS011;10306;52.128;5.208;2022-09-09T05:53:10;3.20;;;2.90;;
20294;SDS011;10306;52.128;5.208;2022-09-09T05:55:36;4.40;;;2.80;;
20294;SDS011;10306;52.128;5.208;2022-09-09T05:58:02;3.17;;;2.60;;
20294;SDS011;10306;52.128;5.208;2022-09-09T06:00:29;3.67;;;2.77;;
20294;SDS011;10306;52.128;5.208;2022-09-09T06:02:56;4.70;;;3.00;;
20294;SDS011;10306;52.128;5.208;2022-09-09T06:05:22;3.30;;;2.80;;
20294;SDS011;10306;52.128;5.208;2022-09-09T06:07:52;2.93;;;2.70;;
20294;SDS011;10306;52.128;5.208;2022-09-09T06:10:19;3.60;;;2.47;;
20294;SDS011;10306;52.128;5.208;2022-09-09T06:12:44;3.07;;;2.77;;
20294;SDS011;10306;52.128;5.208;2022-09-09T06:15:10;3.80;;;2.63;;
20294;SDS011;10306;52.128;5.208;2022-09-09T06:17:36;2.77;;;2.57;;
20294;SDS011;10306;52.128;5.208;2022-09-09T06:20:03;3.30;;;2.80;;
20294;SDS011;10306;52.128;5.208;2022-09-09T06:22:29;4.43;;;2.70;;
20294;SDS011;10306;52.128;5.208;2022-09-09T06:24:55;2.87;;;2.60;;
20294;SDS011;10306;52.128;5.208;2022-09-09T06:27:21;2.77;;;2.57;;
20294;SDS011;10306;52.128;5.208;2022-09-09T06:29:47;4.40;;;3.27;;
20294;SDS011;10306;52.128;5.208;2022-09-09T06:32:13;3.07;;;2.43;;
20294;SDS011;10306;52.128;5.208;2022-09-09T06:34:39;4.13;;;2.67;;
20294;SDS011;10306;52.128;5.208;2022-09-09T06:37:05;3.30;;;2.77;;
20294;SDS011;10306;52.128;5.208;2022-09-09T06:39:33;3.40;;;2.13;;
20294;SDS011;10306;52.128;5.208;2022-09-09T06:41:59;2.73;;;2.07;;
20294;SDS011;10306;52.128;5.208;2022-09-09T06:44:25;3.93;;;2.17;;
20294;SDS011;10306;52.128;5.208;2022-09-09T06:46:51;6.93;;;2.60;;
20294;SDS011;10306;52.128;5.208;2022-09-09T06:49:18;2.60;;;1.87;;
20294;SDS011;10306;52.128;5.208;2022-09-09T06:51:44;4.37;;;2.83;;
20294;SDS011;10306;52.128;5.208;2022-09-09T06:54:11;3.07;;;2.20;;
20294;SDS011;10306;52.128;5.208;2022-09-09T06:56:38;4.40;;;2.20;;
20294;SDS011;10306;52.128;5.208;2022-09-09T06:59:07;4.83;;;2.30;;
20294;SDS011;10306;52.128;5.208;2022-09-09T07:01:34;3.20;;;2.13;;
20294;SDS011;10306;52.128;5.208;2022-09-09T07:04:00;3.83;;;2.20;;
20294;SDS011;10306;52.128;5.208;2022-09-09T07:06:28;3.87;;;2.00;;
20294;SDS011;10306;52.128;5.208;2022-09-09T07:08:58;4.67;;;2.20;;
20294;SDS011;10306;52.128;5.208;2022-09-09T07:11:28;4.53;;;2.47;;
20294;SDS011;10306;52.128;5.208;2022-09-09T07:13:55;5.33;;;2.10;;
20294;SDS011;10306;52.128;5.208;2022-09-09T07:16:22;4.23;;;2.37;;
20294;SDS011;10306;52.128;5.208;2022-09-09T07:18:52;5.73;;;2.10;;
20294;SDS011;10306;52.128;5.208;2022-09-09T07:21:22;5.60;;;2.20;;
20294;SDS011;10306;52.128;5.208;2022-09-09T07:23:49;4.37;;;2.20;;
20294;SDS011;10306;52.128;5.208;2022-09-09T07:26:16;3.67;;;1.63;;
20294;SDS011;10306;52.128;5.208;2022-09-09T07:28:44;2.97;;;1.93;;
20294;SDS011;10306;52.128;5.208;2022-09-09T07:31:13;4.30;;;2.37;;
20294;SDS011;10306;52.128;5.208;2022-09-09T07:33:40;2.17;;;1.80;;
20294;SDS011;10306;52.128;5.208;2022-09-09T07:36:13;3.73;;;2.10;;
20294;SDS011;10306;52.128;5.208;2022-09-09T07:38:40;4.77;;;2.13;;
20294;SDS011;10306;52.128;5.208;2022-09-09T07:41:08;3.50;;;2.00;;
20294;SDS011;10306;52.128;5.208;2022-09-09T07:43:37;4.30;;;2.53;;
20294;SDS011;10306;52.128;5.208;2022-09-09T07:46:04;3.90;;;2.10;;
20294;SDS011;10306;52.128;5.208;2022-09-09T07:48:30;5.10;;;2.40;;
20294;SDS011;10306;52.128;5.208;2022-09-09T07:51:31;5.17;;;2.70;;
20294;SDS011;10306;52.128;5.208;2022-09-09T07:53:53;4.10;;;2.00;;
20294;SDS011;10306;52.128;5.208;2022-09-09T07:56:19;4.67;;;2.20;;
20294;SDS011;10306;52.128;5.208;2022-09-09T07:58:48;3.20;;;2.10;;
20294;SDS011;10306;52.128;5.208;2022-09-09T08:01:15;2.20;;;2.00;;
20294;SDS011;10306;52.128;5.208;2022-09-09T08:03:42;1.73;;;1.60;;
20294;SDS011;10306;52.128;5.208;2022-09-09T08:06:09;3.93;;;2.10;;
20294;SDS011;10306;52.128;5.208;2022-09-09T08:08:36;2.17;;;1.97;;
20294;SDS011;10306;52.128;5.208;2022-09-09T08:11:13;2.67;;;1.70;;
20294;SDS011;10306;52.128;5.208;2022-09-09T08:13:40;2.50;;;1.93;;
20294;SDS011;10306;52.128;5.208;2022-09-09T08:16:11;5.43;;;1.97;;
20294;SDS011;10306;52.128;5.208;2022-09-09T08:18:37;3.10;;;2.30;;
20294;SDS011;10306;52.128;5.208;2022-09-09T08:21:04;5.10;;;2.10;;
20294;SDS011;10306;52.128;5.208;2022-09-09T08:23:30;2.60;;;2.20;;
20294;SDS011;10306;52.128;5.208;2022-09-09T08:26:03;3.17;;;1.83;;
20294;SDS011;10306;52.128;5.208;2022-09-09T08:28:29;3.23;;;2.10;;
20294;SDS011;10306;52.128;5.208;2022-09-09T08:30:56;1.90;;;1.80;;
20294;SDS011;10306;52.128;5.208;2022-09-09T08:33:22;1.87;;;1.70;;
20294;SDS011;10306;52.128;5.208;2022-09-09T08:35:51;3.13;;;1.80;;
20294;SDS011;10306;52.128;5.208;2022-09-09T08:38:17;5.23;;;1.80;;
20294;SDS011;10306;52.128;5.208;2022-09-09T08:40:44;2.83;;;1.80;;
20294;SDS011;10306;52.128;5.208;2022-09-09T08:43:14;2.63;;;2.00;;
20294;SDS011;10306;52.128;5.208;2022-09-09T08:48:40;4.57;;;2.20;;
20294;SDS011;10306;52.128;5.208;2022-09-09T08:51:09;3.10;;;1.60;;
20294;SDS011;10306;52.128;5.208;2022-09-09T08:53:46;3.83;;;1.77;;
20294;SDS011;10306;52.128;5.208;2022-09-09T08:56:14;5.20;;;1.77;;
20294;SDS011;10306;52.128;5.208;2022-09-09T08:58:47;1.83;;;1.43;;
20294;SDS011;10306;52.128;5.208;2022-09-09T09:06:26;2.67;;;1.40;;
20294;SDS011;10306;52.128;5.208;2022-09-09T09:11:37;2.93;;;1.50;;
20294;SDS011;10306;52.128;5.208;2022-09-09T09:14:07;3.27;;;1.90;;
20294;SDS011;10306;52.128;5.208;2022-09-09T09:19:19;4.07;;;1.80;;
20294;SDS011;10306;52.128;5.208;2022-09-09T09:21:49;2.87;;;1.77;;
20294;SDS011;10306;52.128;5.208;2022-09-09T09:24:20;2.27;;;1.80;;
20294;SDS011;10306;52.128;5.208;2022-09-09T09:26:48;4.67;;;1.90;;
20294;SDS011;10306;52.128;5.208;2022-09-09T09:29:15;1.30;;;1.20;;
20294;SDS011;10306;52.128;5.208;2022-09-09T09:31:42;4.83;;;2.00;;
20294;SDS011;10306;52.128;5.208;2022-09-09T09:34:09;2.73;;;1.50;;
20294;SDS011;10306;52.128;5.208;2022-09-09T09:36:43;1.83;;;1.43;;
20294;SDS011;10306;52.128;5.208;2022-09-09T09:39:21;4.77;;;1.87;;
20294;SDS011;10306;52.128;5.208;2022-09-09T09:41:47;3.80;;;1.60;;
20294;SDS011;10306;52.128;5.208;2022-09-09T09:44:29;3.03;;;1.80;;
20294;SDS011;10306;52.128;5.208;2022-09-09T09:47:05;3.60;;;1.80;;
20294;SDS011;10306;52.128;5.208;2022-09-09T09:49:32;2.17;;;1.70;;
20294;SDS011;10306;52.128;5.208;2022-09-09T09:52:05;3.97;;;1.80;;
20294;SDS011;10306;52.128;5.208;2022-09-09T09:54:39;4.47;;;2.13;;
20294;SDS011;10306;52.128;5.208;2022-09-09T09:57:16;2.80;;;1.80;;
20294;SDS011;10306;52.128;5.208;2022-09-09T09:59:43;2.20;;;2.00;;
20294;SDS011;10306;52.128;5.208;2022-09-09T10:02:22;4.10;;;2.10;;
20294;SDS011;10306;52.128;5.208;2022-09-09T10:05:05;5.03;;;2.33;;
20294;SDS011;10306;52.128;5.208;2022-09-09T10:07:31;5.67;;;2.57;;
20294;SDS011;10306;52.128;5.208;2022-09-09T10:09:58;3.77;;;2.47;;
20294;SDS011;10306;52.128;5.208;2022-09-09T10:12:29;4.90;;;2.27;;
20294;SDS011;10306;52.128;5.208;2022-09-09T10:20:13;9.17;;;2.40;;
20294;SDS011;10306;52.128;5.208;2022-09-09T10:22:44;3.13;;;2.20;;
20294;SDS011;10306;52.128;5.208;2022-09-09T10:25:31;4.40;;;2.10;;
20294;SDS011;10306;52.128;5.208;2022-09-09T10:34:03;3.70;;;2.40;;
20294;SDS011;10306;52.128;5.208;2022-09-09T10:36:13;5.83;;;2.27;;
20294;SDS011;10306;52.128;5.208;2022-09-09T10:38:46;6.33;;;2.40;;
20294;SDS011;10306;52.128;5.208;2022-09-09T10:44:01;3.17;;;2.70;;
20294;SDS011;10306;52.128;5.208;2022-09-09T10:46:51;2.27;;;2.10;;
20294;SDS011;10306;52.128;5.208;2022-09-09T10:49:38;4.70;;;2.10;;
20294;SDS011;10306;52.128;5.208;2022-09-09T10:52:13;4.50;;;2.37;;
20294;SDS011;10306;52.128;5.208;2022-09-09T10:54:58;3.10;;;2.30;;
20294;SDS011;10306;52.128;5.208;2022-09-09T10:57:31;3.87;;;1.97;;
20294;SDS011;10306;52.128;5.208;2022-09-09T11:00:01;4.07;;;1.90;;
20294;SDS011;10306;52.128;5.208;2022-09-09T11:02:29;3.67;;;1.93;;
20294;SDS011;10306;52.128;5.208;2022-09-09T11:04:57;5.30;;;2.17;;
20294;SDS011;10306;52.128;5.208;2022-09-09T11:07:42;3.63;;;2.23;;
20294;SDS011;10306;52.128;5.208;2022-09-09T11:10:32;3.53;;;2.30;;
20294;SDS011;10306;52.128;5.208;2022-09-09T11:13:02;2.40;;;2.20;;
20294;SDS011;10306;52.128;5.208;2022-09-09T11:15:31;3.87;;;2.20;;
20294;SDS011;10306;52.128;5.208;2022-09-09T11:18:01;5.90;;;2.30;;
20294;SDS011;10306;52.128;5.208;2022-09-09T11:20:29;2.10;;;2.00;;
20294;SDS011;10306;52.128;5.208;2022-09-09T11:23:04;3.07;;;2.20;;
20294;SDS011;10306;52.128;5.208;2022-09-09T11:25:32;4.07;;;2.10;;
20294;SDS011;10306;52.128;5.208;2022-09-09T11:30:30;1.93;;;1.77;;
20294;SDS011;10306;52.128;5.208;2022-09-09T11:38:15;1.40;;;1.40;;
20294;SDS011;10306;52.128;5.208;2022-09-09T11:40:42;2.20;;;1.90;;
20294;SDS011;10306;52.128;5.208;2022-09-09T11:43:10;2.23;;;1.80;;
20294;SDS011;10306;52.128;5.208;2022-09-09T11:45:38;1.57;;;1.47;;
20294;SDS011;10306;52.128;5.208;2022-09-09T11:48:05;3.13;;;1.77;;
20294;SDS011;10306;52.128;5.208;2022-09-09T11:50:34;2.27;;;1.80;;
20294;SDS011;10306;52.128;5.208;2022-09-09T11:53:05;2.63;;;1.70;;
20294;SDS011;10306;52.128;5.208;2022-09-09T11:55:32;4.13;;;2.00;;
20294;SDS011;10306;52.128;5.208;2022-09-09T12:03:02;2.60;;;1.83;;
20294;SDS011;10306;52.128;5.208;2022-09-09T12:05:38;2.00;;;1.90;;
20294;SDS011;10306;52.128;5.208;2022-09-09T12:08:05;1.73;;;1.63;;
20294;SDS011;10306;52.128;5.208;2022-09-09T12:10:33;2.53;;;1.73;;
20294;SDS011;10306;52.128;5.208;2022-09-09T12:15:49;2.63;;;2.30;;
20294;SDS011;10306;52.128;5.208;2022-09-09T12:18:21;2.00;;;1.80;;
20294;SDS011;10306;52.128;5.208;2022-09-09T12:20:51;2.30;;;2.10;;
20294;SDS011;10306;52.128;5.208;2022-09-09T12:24:06;4.13;;;2.40;;
20294;SDS011;10306;52.128;5.208;2022-09-09T12:31:42;2.37;;;2.20;;
20294;SDS011;10306;52.128;5.208;2022-09-09T12:34:11;2.70;;;2.00;;
20294;SDS011;10306;52.128;5.208;2022-09-09T12:36:39;2.10;;;1.93;;
20294;SDS011;10306;52.128;5.208;2022-09-09T12:39:26;4.20;;;2.63;;
20294;SDS011;10306;52.128;5.208;2022-09-09T12:41:53;2.30;;;2.10;;
20294;SDS011;10306;52.128;5.208;2022-09-09T12:44:23;2.30;;;1.70;;
20294;SDS011;10306;52.128;5.208;2022-09-09T12:46:50;1.73;;;1.63;;
20294;SDS011;10306;52.128;5.208;2022-09-09T12:49:30;1.90;;;1.80;;
20294;SDS011;10306;52.128;5.208;2022-09-09T12:52:41;2.97;;;2.00;;
20294;SDS011;10306;52.128;5.208;2022-09-09T12:54:49;2.40;;;1.73;;
20294;SDS011;10306;52.128;5.208;2022-09-09T12:57:18;3.33;;;2.03;;
20294;SDS011;10306;52.128;5.208;2022-09-09T12:59:45;2.27;;;1.63;;
20294;SDS011;10306;52.128;5.208;2022-09-09T13:05:12;2.30;;;2.10;;
20294;SDS011;10306;52.128;5.208;2022-09-09T13:07:40;2.40;;;1.90;;
20294;SDS011;10306;52.128;5.208;2022-09-09T13:10:07;2.57;;;1.70;;
20294;SDS011;10306;52.128;5.208;2022-09-09T13:12:36;2.33;;;2.17;;
20294;SDS011;10306;52.128;5.208;2022-09-09T13:15:02;1.90;;;1.80;;
20294;SDS011;10306;52.128;5.208;2022-09-09T13:17:28;1.77;;;1.60;;
20294;SDS011;10306;52.128;5.208;2022-09-09T13:19:54;2.40;;;1.70;;
20294;SDS011;10306;52.128;5.208;2022-09-09T13:22:31;2.17;;;2.00;;
20294;SDS011;10306;52.128;5.208;2022-09-09T13:25:02;2.03;;;1.90;;
20294;SDS011;10306;52.128;5.208;2022-09-09T13:29:55;2.87;;;1.80;;
20294;SDS011;10306;52.128;5.208;2022-09-09T13:32:21;2.10;;;1.90;;
20294;SDS011;10306;52.128;5.208;2022-09-09T13:34:51;1.70;;;1.60;;
20294;SDS011;10306;52.128;5.208;2022-09-09T13:37:21;1.73;;;1.63;;
20294;SDS011;10306;52.128;5.208;2022-09-09T13:39:51;2.40;;;2.00;;
20294;SDS011;10306;52.128;5.208;2022-09-09T13:42:25;3.17;;;2.10;;
20294;SDS011;10306;52.128;5.208;2022-09-09T13:44:51;3.00;;;1.80;;
20294;SDS011;10306;52.128;5.208;2022-09-09T13:47:18;1.70;;;1.60;;
20294;SDS011;10306;52.128;5.208;2022-09-09T13:49:45;1.67;;;1.57;;
20294;SDS011;10306;52.128;5.208;2022-09-09T13:52:12;2.37;;;2.07;;
20294;SDS011;10306;52.128;5.208;2022-09-09T13:54:38;2.50;;;2.27;;
20294;SDS011;10306;52.128;5.208;2022-09-09T13:57:05;4.00;;;2.10;;
20294;SDS011;10306;52.128;5.208;2022-09-09T13:59:31;2.47;;;1.77;;
20294;SDS011;10306;52.128;5.208;2022-09-09T14:01:57;3.37;;;2.37;;
20294;SDS011;10306;52.128;5.208;2022-09-09T14:04:24;2.80;;;2.13;;
20294;SDS011;10306;52.128;5.208;2022-09-09T14:06:50;2.63;;;2.43;;
20294;SDS011;10306;52.128;5.208;2022-09-09T14:09:16;2.93;;;2.50;;
20294;SDS011;10306;52.128;5.208;2022-09-09T14:11:43;2.80;;;2.37;;
20294;SDS011;10306;52.128;5.208;2022-09-09T14:14:10;2.70;;;2.50;;
20294;SDS011;10306;52.128;5.208;2022-09-09T14:16:36;2.90;;;2.70;;
20294;SDS011;10306;52.128;5.208;2022-09-09T14:19:03;2.30;;;2.20;;
20294;SDS011;10306;52.128;5.208;2022-09-09T14:21:29;2.80;;;2.60;;
20294;SDS011;10306;52.128;5.208;2022-09-09T14:23:55;2.60;;;2.50;;
20294;SDS011;10306;52.128;5.208;2022-09-09T14:26:23;4.10;;;2.87;;
20294;SDS011;10306;52.128;5.208;2022-09-09T14:28:49;5.97;;;2.83;;
20294;SDS011;10306;52.128;5.208;2022-09-09T14:31:15;3.30;;;3.10;;
20294;SDS011;10306;52.128;5.208;2022-09-09T14:33:45;2.90;;;2.70;;
20294;SDS011;10306;52.128;5.208;2022-09-09T14:36:12;3.63;;;2.67;;
20294;SDS011;10306;52.128;5.208;2022-09-09T14:38:38;3.93;;;3.07;;
20294;SDS011;10306;52.128;5.208;2022-09-09T14:41:09;3.00;;;2.80;;
20294;SDS011;10306;52.128;5.208;2022-09-09T14:43:37;3.37;;;3.00;;
20294;SDS011;10306;52.128;5.208;2022-09-09T14:46:10;3.50;;;2.63;;
20294;SDS011;10306;52.128;5.208;2022-09-09T14:48:37;3.60;;;2.77;;
20294;SDS011;10306;52.128;5.208;2022-09-09T14:51:12;2.17;;;2.07;;
20294;SDS011;10306;52.128;5.208;2022-09-09T14:53:39;2.70;;;2.50;;
20294;SDS011;10306;52.128;5.208;2022-09-09T14:56:09;2.67;;;2.27;;
20294;SDS011;10306;52.128;5.208;2022-09-09T14:58:37;2.30;;;2.17;;
20294;SDS011;10306;52.128;5.208;2022-09-09T15:01:03;2.30;;;2.20;;
20294;SDS011;10306;52.128;5.208;2022-09-09T15:03:30;3.50;;;2.57;;
20294;SDS011;10306;52.128;5.208;2022-09-09T15:05:56;2.33;;;2.23;;
20294;SDS011;10306;52.128;5.208;2022-09-09T15:08:23;2.00;;;1.90;;
20294;SDS011;10306;52.128;5.208;2022-09-09T15:10:49;5.37;;;2.27;;
20294;SDS011;10306;52.128;5.208;2022-09-09T15:13:15;1.90;;;1.90;;
20294;SDS011;10306;52.128;5.208;2022-09-09T15:15:44;1.93;;;1.70;;
20294;SDS011;10306;52.128;5.208;2022-09-09T15:18:10;1.80;;;1.70;;
20294;SDS011;10306;52.128;5.208;2022-09-09T15:20:35;1.53;;;1.43;;
20294;SDS011;10306;52.128;5.208;2022-09-09T15:23:02;2.17;;;1.53;;
20294;SDS011;10306;52.128;5.208;2022-09-09T15:25:28;2.33;;;1.83;;
20294;SDS011;10306;52.128;5.208;2022-09-09T15:27:54;2.37;;;1.60;;
20294;SDS011;10306;52.128;5.208;2022-09-09T15:30:21;2.57;;;1.73;;
20294;SDS011;10306;52.128;5.208;2022-09-09T15:32:47;2.00;;;1.60;;
20294;SDS011;10306;52.128;5.208;2022-09-09T15:35:13;1.97;;;1.63;;
20294;SDS011;10306;52.128;5.208;2022-09-09T15:37:39;1.77;;;1.67;;
20294;SDS011;10306;52.128;5.208;2022-09-09T15:40:05;2.67;;;1.90;;
20294;SDS011;10306;52.128;5.208;2022-09-09T15:42:31;1.63;;;1.53;;
20294;SDS011;10306;52.128;5.208;2022-09-09T15:44:57;3.13;;;1.80;;
20294;SDS011;10306;52.128;5.208;2022-09-09T15:47:23;2.30;;;1.60;;
20294;SDS011;10306;52.128;5.208;2022-09-09T15:49:49;1.67;;;1.47;;
20294;SDS011;10306;52.128;5.208;2022-09-09T15:52:15;1.73;;;1.50;;
20294;SDS011;10306;52.128;5.208;2022-09-09T15:54:41;1.40;;;1.30;;
20294;SDS011;10306;52.128;5.208;2022-09-09T15:57:10;2.63;;;1.30;;
20294;SDS011;10306;52.128;5.208;2022-09-09T15:59:37;1.50;;;1.40;;
20294;SDS011;10306;52.128;5.208;2022-09-09T16:02:03;2.13;;;1.30;;
20294;SDS011;10306;52.128;5.208;2022-09-09T16:04:30;1.30;;;1.30;;
20294;SDS011;10306;52.128;5.208;2022-09-09T16:06:57;1.27;;;1.17;;
20294;SDS011;10306;52.128;5.208;2022-09-09T16:09:23;1.63;;;1.40;;
20294;SDS011;10306;52.128;5.208;2022-09-09T16:11:49;2.50;;;1.63;;
20294;SDS011;10306;52.128;5.208;2022-09-09T16:14:18;1.67;;;1.57;;
20294;SDS011;10306;52.128;5.208;2022-09-09T16:16:44;1.60;;;1.50;;
20294;SDS011;10306;52.128;5.208;2022-09-09T16:19:11;1.53;;;1.53;;
20294;SDS011;10306;52.128;5.208;2022-09-09T16:21:42;2.67;;;1.90;;